sensor_id;sensor_type;location;lat;lon;timestamp;pressure;altitude;pressure_sealevel;temperature;humidity
21109;BME280;10712;52.944;9.098;2023-12-22T00:00:02;99123.81;;;12.96;67.30
21109;BME280;10712;52.944;9.098;2023-12-22T00:02:30;99106.34;;;13.12;66.84
21109;BME280;10712;52.944;9.098;2023-12-22T00:04:56;99119.72;;;13.02;67.24
21109;BME280;10712;52.944;9.098;2023-12-22T00:07:22;99117.06;;;13.02;66.87
21109;BME280;10712;52.944;9.098;2023-12-22T00:09:48;99123.69;;;12.98;67.17
21109;BME280;10712;52.944;9.098;2023-12-22T00:12:13;99134.06;;;13.01;66.78
21109;BME280;10712;52.944;9.098;2023-12-22T00:14:39;99126.22;;;12.99;66.87
21109;BME280;10712;52.944;9.098;2023-12-22T00:17:07;99125.47;;;13.07;66.63
21109;BME280;10712;52.944;9.098;2023-12-22T00:19:32;99123.09;;;13.04;67.04
21109;BME280;10712;52.944;9.098;2023-12-22T00:21:58;99136.16;;;13.07;67.11
21109;BME280;10712;52.944;9.098;2023-12-22T00:24:24;99131.44;;;12.82;67.20
21109;BME280;10712;52.944;9.098;2023-12-22T00:26:50;99121.69;;;13.00;66.67
21109;BME280;10712;52.944;9.098;2023-12-22T00:29:16;99123.09;;;13.04;66.64
21109;BME280;10712;52.944;9.098;2023-12-22T00:31:42;99136.03;;;13.18;66.52
21109;BME280;10712;52.944;9.098;2023-12-22T00:34:07;99121.69;;;13.19;66.52
21109;BME280;10712;52.944;9.098;2023-12-22T00:36:33;99125.78;;;12.94;66.33
21109;BME280;10712;52.944;9.098;2023-12-22T00:38:59;99147.88;;;13.06;65.71
21109;BME280;10712;52.944;9.098;2023-12-22T00:41:25;99134.34;;;13.17;65.16
21109;BME280;10712;52.944;9.098;2023-12-22T00:43:50;99147.00;;;13.15;64.72
21109;BME280;10712;52.944;9.098;2023-12-22T00:46:16;99145.88;;;13.08;64.58
21109;BME280;10712;52.944;9.098;2023-12-22T00:48:42;99160.53;;;13.04;64.04
21109;BME280;10712;52.944;9.098;2023-12-22T00:51:08;99158.69;;;13.05;63.63
21109;BME280;10712;52.944;9.098;2023-12-22T00:53:34;99160.84;;;12.82;64.02
21109;BME280;10712;52.944;9.098;2023-12-22T00:56:00;99168.31;;;12.78;63.73
21109;BME280;10712;52.944;9.098;2023-12-22T00:58:29;99166.19;;;12.91;63.60
21109;BME280;10712;52.944;9.098;2023-12-22T01:00:56;99165.56;;;13.07;63.92
21109;BME280;10712;52.944;9.098;2023-12-22T01:03:22;99163.38;;;12.93;63.69
21109;BME280;10712;52.944;9.098;2023-12-22T01:05:48;99158.56;;;12.87;63.93
21109;BME280;10712;52.944;9.098;2023-12-22T01:08:14;99160.00;;;12.91;63.98
21109;BME280;10712;52.944;9.098;2023-12-22T01:10:39;99162.78;;;12.99;64.08
21109;BME280;10712;52.944;9.098;2023-12-22T01:13:05;99170.94;;;12.97;64.21
21109;BME280;10712;52.944;9.098;2023-12-22T01:15:31;99172.91;;;13.05;64.33
21109;BME280;10712;52.944;9.098;2023-12-22T01:17:56;99170.13;;;12.68;65.25
21109;BME280;10712;52.944;9.098;2023-12-22T01:20:22;99186.13;;;12.39;65.85
21109;BME280;10712;52.944;9.098;2023-12-22T01:22:48;99182.22;;;12.82;65.21
21109;BME280;10712;52.944;9.098;2023-12-22T01:25:14;99188.69;;;12.70;65.85
21109;BME280;10712;52.944;9.098;2023-12-22T01:27:40;99200.78;;;12.74;66.11
21109;BME280;10712;52.944;9.098;2023-12-22T01:30:08;99196.81;;;12.58;67.11
21109;BME280;10712;52.944;9.098;2023-12-22T01:32:34;99192.63;;;12.56;67.56
21109;BME280;10712;52.944;9.098;2023-12-22T01:35:02;99179.81;;;12.40;68.28
21109;BME280;10712;52.944;9.098;2023-12-22T01:37:32;99204.25;;;12.45;68.21
21109;BME280;10712;52.944;9.098;2023-12-22T01:39:58;99198.41;;;12.51;68.10
21109;BME280;10712;52.944;9.098;2023-12-22T01:42:24;99219.03;;;12.40;68.81
21109;BME280;10712;52.944;9.098;2023-12-22T01:44:50;99238.75;;;12.58;68.27
21109;BME280;10712;52.944;9.098;2023-12-22T01:47:16;99222.97;;;12.55;68.69
21109;BME280;10712;52.944;9.098;2023-12-22T01:49:42;99206.13;;;12.54;68.79
21109;BME280;10712;52.944;9.098;2023-12-22T01:52:08;99218.06;;;12.70;68.57
21109;BME280;10712;52.944;9.098;2023-12-22T01:54:35;99225.00;;;12.13;69.28
21109;BME280;10712;52.944;9.098;2023-12-22T01:57:01;99228.00;;;12.29;69.15
21109;BME280;10712;52.944;9.098;2023-12-22T01:59:28;99211.44;;;12.54;68.32
21109;BME280;10712;52.944;9.098;2023-12-22T02:01:56;99220.00;;;12.29;69.12
21109;BME280;10712;52.944;9.098;2023-12-22T02:04:22;99211.44;;;12.54;68.41
21109;BME280;10712;52.944;9.098;2023-12-22T02:06:50;99216.53;;;12.57;68.31
21109;BME280;10712;52.944;9.098;2023-12-22T02:09:16;99225.81;;;12.63;68.26
21109;BME280;10712;52.944;9.098;2023-12-22T02:11:42;99229.47;;;12.72;68.04
21109;BME280;10712;52.944;9.098;2023-12-22T02:14:08;99230.72;;;12.58;68.25
21109;BME280;10712;52.944;9.098;2023-12-22T02:16:52;99233.69;;;12.65;68.03
21109;BME280;10712;52.944;9.098;2023-12-22T02:19:43;99241.13;;;12.51;68.09
21109;BME280;10712;52.944;9.098;2023-12-22T02:22:11;99213.44;;;12.62;67.88
21109;BME280;10712;52.944;9.098;2023-12-22T02:24:38;99213.13;;;12.36;67.67
21109;BME280;10712;52.944;9.098;2023-12-22T02:30:25;99223.75;;;12.17;66.16
21109;BME280;10712;52.944;9.098;2023-12-22T02:32:56;99217.91;;;12.42;65.58
21109;BME280;10712;52.944;9.098;2023-12-22T02:35:26;99212.41;;;12.34;65.62
21109;BME280;10712;52.944;9.098;2023-12-22T02:37:56;99218.31;;;12.38;65.92
21109;BME280;10712;52.944;9.098;2023-12-22T02:40:24;99253.78;;;12.49;65.69
21109;BME280;10712;52.944;9.098;2023-12-22T02:42:53;99267.38;;;12.46;66.22
21109;BME280;10712;52.944;9.098;2023-12-22T02:45:19;99280.34;;;12.11;68.00
21109;BME280;10712;52.944;9.098;2023-12-22T02:47:46;99240.19;;;12.12;68.86
21109;BME280;10712;52.944;9.098;2023-12-22T02:50:16;99225.72;;;12.15;68.98
21109;BME280;10712;52.944;9.098;2023-12-22T02:52:43;99227.63;;;11.94;69.89
21109;BME280;10712;52.944;9.098;2023-12-22T02:55:09;99223.06;;;12.24;69.13
21109;BME280;10712;52.944;9.098;2023-12-22T02:57:35;99217.88;;;12.33;68.79
21109;BME280;10712;52.944;9.098;2023-12-22T03:00:01;99222.06;;;12.16;69.61
21109;BME280;10712;52.944;9.098;2023-12-22T03:02:29;99213.91;;;12.17;69.75
21109;BME280;10712;52.944;9.098;2023-12-22T03:04:55;99231.31;;;12.12;69.88
21109;BME280;10712;52.944;9.098;2023-12-22T03:07:21;99222.88;;;12.07;69.93
21109;BME280;10712;52.944;9.098;2023-12-22T03:09:47;99215.59;;;12.18;69.51
21109;BME280;10712;52.944;9.098;2023-12-22T03:12:13;99221.06;;;12.17;69.29
21109;BME280;10712;52.944;9.098;2023-12-22T03:14:38;99218.72;;;12.33;68.79
21109;BME280;10712;52.944;9.098;2023-12-22T03:17:06;99227.47;;;12.35;68.91
21109;BME280;10712;52.944;9.098;2023-12-22T03:19:33;99222.94;;;12.26;68.61
21109;BME280;10712;52.944;9.098;2023-12-22T03:21:59;99226.31;;;12.28;68.10
21109;BME280;10712;52.944;9.098;2023-12-22T03:24:26;99222.13;;;12.35;67.87
21109;BME280;10712;52.944;9.098;2023-12-22T03:26:52;99203.84;;;12.40;67.61
21109;BME280;10712;52.944;9.098;2023-12-22T03:29:19;99195.41;;;12.45;67.61
21109;BME280;10712;52.944;9.098;2023-12-22T03:31:45;99184.03;;;12.52;67.56
21109;BME280;10712;52.944;9.098;2023-12-22T03:34:12;99187.84;;;12.59;67.36
21109;BME280;10712;52.944;9.098;2023-12-22T03:36:38;99177.16;;;12.59;67.47
21109;BME280;10712;52.944;9.098;2023-12-22T03:39:04;99185.72;;;12.53;67.45
21109;BME280;10712;52.944;9.098;2023-12-22T03:41:30;99199.63;;;12.47;67.53
21109;BME280;10712;52.944;9.098;2023-12-22T03:43:57;99210.75;;;12.52;67.28
21109;BME280;10712;52.944;9.098;2023-12-22T03:46:23;99196.28;;;12.55;67.20
21109;BME280;10712;52.944;9.098;2023-12-22T03:48:52;99212.72;;;12.60;67.34
21109;BME280;10712;52.944;9.098;2023-12-22T03:51:17;99204.97;;;12.47;67.80
21109;BME280;10712;52.944;9.098;2023-12-22T03:53:43;99218.00;;;12.31;68.53
21109;BME280;10712;52.944;9.098;2023-12-22T03:56:10;99219.31;;;12.37;68.29
21109;BME280;10712;52.944;9.098;2023-12-22T03:58:37;99215.59;;;12.18;68.34
21109;BME280;10712;52.944;9.098;2023-12-22T04:01:03;99217.13;;;12.11;68.41
21109;BME280;10712;52.944;9.098;2023-12-22T04:03:29;99209.59;;;12.26;67.82
21109;BME280;10712;52.944;9.098;2023-12-22T04:05:55;99214.19;;;12.24;67.82
21109;BME280;10712;52.944;9.098;2023-12-22T04:08:21;99216.41;;;12.00;68.04
21109;BME280;10712;52.944;9.098;2023-12-22T04:10:47;99210.47;;;11.87;68.14
21109;BME280;10712;52.944;9.098;2023-12-22T04:13:14;99213.31;;;11.95;67.75
21109;BME280;10712;52.944;9.098;2023-12-22T04:15:40;99198.28;;;12.03;67.41
21109;BME280;10712;52.944;9.098;2023-12-22T04:18:05;99183.59;;;12.28;66.70
21109;BME280;10712;52.944;9.098;2023-12-22T04:20:31;99180.63;;;12.31;66.28
21109;BME280;10712;52.944;9.098;2023-12-22T04:22:58;99181.34;;;12.33;66.32
21109;BME280;10712;52.944;9.098;2023-12-22T04:25:23;99180.25;;;12.36;66.11
21109;BME280;10712;52.944;9.098;2023-12-22T04:27:51;99182.75;;;12.47;65.56
21109;BME280;10712;52.944;9.098;2023-12-22T04:30:17;99169.53;;;12.45;65.47
21109;BME280;10712;52.944;9.098;2023-12-22T04:32:43;99182.78;;;12.56;65.25
21109;BME280;10712;52.944;9.098;2023-12-22T04:35:09;99187.84;;;12.50;65.34
21109;BME280;10712;52.944;9.098;2023-12-22T04:37:35;99206.41;;;12.51;65.71
21109;BME280;10712;52.944;9.098;2023-12-22T04:40:01;99218.63;;;12.44;66.24
21109;BME280;10712;52.944;9.098;2023-12-22T04:42:28;99239.16;;;12.53;66.35
21109;BME280;10712;52.944;9.098;2023-12-22T04:44:54;99242.50;;;12.36;67.05
21109;BME280;10712;52.944;9.098;2023-12-22T04:47:20;99239.28;;;12.42;66.91
21109;BME280;10712;52.944;9.098;2023-12-22T04:49:46;99240.41;;;12.49;67.35
21109;BME280;10712;52.944;9.098;2023-12-22T04:52:12;99210.88;;;11.82;69.15
21109;BME280;10712;52.944;9.098;2023-12-22T04:54:38;99220.81;;;11.80;70.03
21109;BME280;10712;52.944;9.098;2023-12-22T04:57:04;99225.22;;;11.91;70.00
21109;BME280;10712;52.944;9.098;2023-12-22T04:59:30;99236.00;;;11.79;70.02
21109;BME280;10712;52.944;9.098;2023-12-22T05:01:56;99226.53;;;12.06;69.83
21109;BME280;10712;52.944;9.098;2023-12-22T05:04:22;99225.72;;;12.24;69.19
21109;BME280;10712;52.944;9.098;2023-12-22T05:06:48;99223.22;;;12.23;69.41
21109;BME280;10712;52.944;9.098;2023-12-22T05:09:15;99210.38;;;12.07;69.84
21109;BME280;10712;52.944;9.098;2023-12-22T05:11:41;99220.09;;;12.08;69.72
21109;BME280;10712;52.944;9.098;2023-12-22T05:14:07;99210.56;;;12.25;69.31
21109;BME280;10712;52.944;9.098;2023-12-22T05:16:33;99223.91;;;12.25;69.35
21109;BME280;10712;52.944;9.098;2023-12-22T05:18:59;99214.66;;;12.29;68.85
21109;BME280;10712;52.944;9.098;2023-12-22T05:21:25;99215.47;;;12.20;69.32
21109;BME280;10712;52.944;9.098;2023-12-22T05:23:51;99207.78;;;12.36;69.02
21109;BME280;10712;52.944;9.098;2023-12-22T05:26:18;99239.75;;;12.17;69.40
21109;BME280;10712;52.944;9.098;2023-12-22T05:28:45;99245.44;;;12.33;69.03
21109;BME280;10712;52.944;9.098;2023-12-22T05:31:10;99247.44;;;12.50;68.42
21109;BME280;10712;52.944;9.098;2023-12-22T05:33:36;99238.41;;;12.32;67.74
21109;BME280;10712;52.944;9.098;2023-12-22T05:36:03;99232.06;;;12.33;66.88
21109;BME280;10712;52.944;9.098;2023-12-22T05:38:28;99231.97;;;12.44;66.19
21109;BME280;10712;52.944;9.098;2023-12-22T05:40:54;99233.66;;;12.36;66.25
21109;BME280;10712;52.944;9.098;2023-12-22T05:43:20;99241.25;;;12.59;65.70
21109;BME280;10712;52.944;9.098;2023-12-22T05:45:46;99240.44;;;12.69;65.47
21109;BME280;10712;52.944;9.098;2023-12-22T05:48:11;99249.00;;;12.82;65.39
21109;BME280;10712;52.944;9.098;2023-12-22T05:50:37;99244.38;;;12.65;65.13
21109;BME280;10712;52.944;9.098;2023-12-22T05:53:03;99234.22;;;12.49;65.87
21109;BME280;10712;52.944;9.098;2023-12-22T05:55:29;99233.81;;;12.53;65.23
21109;BME280;10712;52.944;9.098;2023-12-22T05:57:55;99240.94;;;12.34;65.54
21109;BME280;10712;52.944;9.098;2023-12-22T06:00:21;99250.22;;;12.39;65.22
21109;BME280;10712;52.944;9.098;2023-12-22T06:02:47;99254.63;;;12.59;64.79
21109;BME280;10712;52.944;9.098;2023-12-22T06:05:13;99266.78;;;12.23;65.38
21109;BME280;10712;52.944;9.098;2023-12-22T06:07:40;99273.94;;;12.33;64.76
21109;BME280;10712;52.944;9.098;2023-12-22T06:10:07;99274.63;;;12.25;64.95
21109;BME280;10712;52.944;9.098;2023-12-22T06:12:35;99282.63;;;12.15;65.01
21109;BME280;10712;52.944;9.098;2023-12-22T06:15:01;99283.63;;;12.24;64.65
21109;BME280;10712;52.944;9.098;2023-12-22T06:17:27;99291.91;;;11.91;65.02
21109;BME280;10712;52.944;9.098;2023-12-22T06:19:53;99299.94;;;12.21;64.21
21109;BME280;10712;52.944;9.098;2023-12-22T06:22:19;99283.78;;;11.71;65.47
21109;BME280;10712;52.944;9.098;2023-12-22T06:24:45;99306.81;;;11.72;65.62
21109;BME280;10712;52.944;9.098;2023-12-22T06:27:10;99322.63;;;12.06;65.47
21109;BME280;10712;52.944;9.098;2023-12-22T06:29:36;99311.97;;;11.64;67.05
21109;BME280;10712;52.944;9.098;2023-12-22T06:32:02;99329.59;;;11.97;66.67
21109;BME280;10712;52.944;9.098;2023-12-22T06:34:31;99322.94;;;12.12;66.33
21109;BME280;10712;52.944;9.098;2023-12-22T06:36:57;99318.34;;;11.94;66.71
21109;BME280;10712;52.944;9.098;2023-12-22T06:39:23;99360.09;;;12.04;66.50
21109;BME280;10712;52.944;9.098;2023-12-22T06:41:49;99341.28;;;11.75;67.80
21109;BME280;10712;52.944;9.098;2023-12-22T06:44:15;99356.44;;;12.26;67.06
21109;BME280;10712;52.944;9.098;2023-12-22T06:46:40;99346.22;;;11.80;68.53
21109;BME280;10712;52.944;9.098;2023-12-22T06:49:06;99354.53;;;11.87;68.70
21109;BME280;10712;52.944;9.098;2023-12-22T06:51:32;99343.44;;;12.12;68.19
21109;BME280;10712;52.944;9.098;2023-12-22T06:54:02;99328.00;;;12.15;68.57
21109;BME280;10712;52.944;9.098;2023-12-22T06:56:31;99324.84;;;12.01;69.32
21109;BME280;10712;52.944;9.098;2023-12-22T06:58:58;99343.72;;;11.67;69.86
21109;BME280;10712;52.944;9.098;2023-12-22T07:01:29;99349.25;;;11.55;70.10
21109;BME280;10712;52.944;9.098;2023-12-22T07:03:55;99358.81;;;11.57;69.82
21109;BME280;10712;52.944;9.098;2023-12-22T07:06:23;99367.47;;;11.91;68.91
21109;BME280;10712;52.944;9.098;2023-12-22T07:11:51;99377.78;;;11.75;69.40
21109;BME280;10712;52.944;9.098;2023-12-22T07:14:18;99376.72;;;11.66;70.01
21109;BME280;10712;52.944;9.098;2023-12-22T07:16:44;99402.38;;;11.99;69.63
21109;BME280;10712;52.944;9.098;2023-12-22T07:19:10;99400.16;;;12.04;69.54
21109;BME280;10712;52.944;9.098;2023-12-22T07:21:39;99404.38;;;12.07;69.79
21109;BME280;10712;52.944;9.098;2023-12-22T07:24:06;99405.31;;;11.75;70.73
21109;BME280;10712;52.944;9.098;2023-12-22T07:26:32;99424.97;;;11.95;70.43
21109;BME280;10712;52.944;9.098;2023-12-22T07:28:58;99410.78;;;11.95;70.41
21109;BME280;10712;52.944;9.098;2023-12-22T07:31:25;99405.69;;;11.92;70.04
21109;BME280;10712;52.944;9.098;2023-12-22T07:33:51;99422.97;;;12.18;69.89
21109;BME280;10712;52.944;9.098;2023-12-22T07:36:18;99412.94;;;12.31;69.49
21109;BME280;10712;52.944;9.098;2023-12-22T07:38:47;99418.03;;;12.34;69.53
21109;BME280;10712;52.944;9.098;2023-12-22T07:41:13;99436.28;;;12.29;69.64
21109;BME280;10712;52.944;9.098;2023-12-22T07:43:38;99443.88;;;12.34;69.47
21109;BME280;10712;52.944;9.098;2023-12-22T07:46:04;99446.22;;;12.27;70.04
21109;BME280;10712;52.944;9.098;2023-12-22T07:48:30;99434.59;;;12.28;70.01
21109;BME280;10712;52.944;9.098;2023-12-22T07:50:56;99427.97;;;12.32;69.75
21109;BME280;10712;52.944;9.098;2023-12-22T07:53:22;99439.00;;;12.18;69.95
21109;BME280;10712;52.944;9.098;2023-12-22T07:55:47;99439.16;;;12.47;69.23
21109;BME280;10712;52.944;9.098;2023-12-22T07:58:13;99431.25;;;12.36;69.27
21109;BME280;10712;52.944;9.098;2023-12-22T08:00:40;99435.94;;;12.43;69.16
21109;BME280;10712;52.944;9.098;2023-12-22T08:03:06;99426.94;;;12.44;69.00
21109;BME280;10712;52.944;9.098;2023-12-22T08:05:31;99436.63;;;12.45;68.94
21109;BME280;10712;52.944;9.098;2023-12-22T08:07:58;99442.50;;;12.39;69.15
21109;BME280;10712;52.944;9.098;2023-12-22T08:10:24;99436.63;;;12.45;68.86
21109;BME280;10712;52.944;9.098;2023-12-22T08:12:50;99438.13;;;12.38;68.81
21109;BME280;10712;52.944;9.098;2023-12-22T08:15:16;99433.25;;;12.43;68.15
21109;BME280;10712;52.944;9.098;2023-12-22T08:17:49;99453.28;;;12.58;67.68
21109;BME280;10712;52.944;9.098;2023-12-22T08:20:21;99453.28;;;12.58;67.61
21109;BME280;10712;52.944;9.098;2023-12-22T08:22:48;99443.13;;;12.52;67.76
21109;BME280;10712;52.944;9.098;2023-12-22T08:25:15;99460.59;;;12.56;67.35
21109;BME280;10712;52.944;9.098;2023-12-22T08:27:41;99457.81;;;12.68;67.07
21109;BME280;10712;52.944;9.098;2023-12-22T08:30:09;99460.13;;;12.82;66.82
21109;BME280;10712;52.944;9.098;2023-12-22T08:32:35;99477.06;;;12.92;66.63
21109;BME280;10712;52.944;9.098;2023-12-22T08:35:01;99452.16;;;12.51;66.17
21109;BME280;10712;52.944;9.098;2023-12-22T08:37:26;99455.16;;;12.68;65.32
21109;BME280;10712;52.944;9.098;2023-12-22T08:39:52;99458.72;;;12.78;65.13
21109;BME280;10712;52.944;9.098;2023-12-22T08:42:18;99447.00;;;12.99;64.69
21109;BME280;10712;52.944;9.098;2023-12-22T08:44:44;99458.06;;;12.95;64.21
21109;BME280;10712;52.944;9.098;2023-12-22T08:47:10;99471.78;;;13.11;64.21
21109;BME280;10712;52.944;9.098;2023-12-22T08:49:36;99475.03;;;13.15;64.69
21109;BME280;10712;52.944;9.098;2023-12-22T08:52:02;99495.75;;;13.22;65.09
21109;BME280;10712;52.944;9.098;2023-12-22T08:54:30;99487.38;;;13.06;66.68
21109;BME280;10712;52.944;9.098;2023-12-22T08:56:56;99500.22;;;12.51;68.21
21109;BME280;10712;52.944;9.098;2023-12-22T08:59:22;99476.88;;;12.53;69.48
21109;BME280;10712;52.944;9.098;2023-12-22T09:01:48;99485.94;;;12.62;69.49
21109;BME280;10712;52.944;9.098;2023-12-22T09:04:13;99479.38;;;12.76;69.41
21109;BME280;10712;52.944;9.098;2023-12-22T09:06:40;99483.03;;;12.75;69.56
21109;BME280;10712;52.944;9.098;2023-12-22T09:09:06;99498.31;;;12.63;69.93
21109;BME280;10712;52.944;9.098;2023-12-22T09:11:34;99485.16;;;12.81;69.52
21109;BME280;10712;52.944;9.098;2023-12-22T09:14:00;99476.72;;;12.76;69.60
21109;BME280;10712;52.944;9.098;2023-12-22T09:16:26;99492.63;;;12.87;69.46
21109;BME280;10712;52.944;9.098;2023-12-22T09:18:52;99514.75;;;12.89;69.26
21109;BME280;10712;52.944;9.098;2023-12-22T09:21:18;99491.41;;;12.91;69.43
21109;BME280;10712;52.944;9.098;2023-12-22T09:23:45;99497.91;;;12.68;69.56
21109;BME280;10712;52.944;9.098;2023-12-22T09:26:15;99510.78;;;12.83;68.87
21109;BME280;10712;52.944;9.098;2023-12-22T09:28:42;99501.34;;;12.58;69.46
21109;BME280;10712;52.944;9.098;2023-12-22T09:31:08;99517.16;;;12.20;69.17
21109;BME280;10712;52.944;9.098;2023-12-22T09:33:36;99536.91;;;12.29;69.71
21109;BME280;10712;52.944;9.098;2023-12-22T09:36:02;99539.59;;;12.59;69.31
21109;BME280;10712;52.944;9.098;2023-12-22T09:38:28;99529.59;;;12.51;69.09
21109;BME280;10712;52.944;9.098;2023-12-22T09:40:55;99511.69;;;12.42;68.92
21109;BME280;10712;52.944;9.098;2023-12-22T09:43:22;99530.59;;;12.50;68.88
21109;BME280;10712;52.944;9.098;2023-12-22T09:45:49;99535.59;;;12.44;69.17
21109;BME280;10712;52.944;9.098;2023-12-22T09:48:17;99519.63;;;12.53;68.88
21109;BME280;10712;52.944;9.098;2023-12-22T09:50:47;99524.09;;;12.53;68.98
21109;BME280;10712;52.944;9.098;2023-12-22T09:53:14;99523.66;;;12.27;69.54
21109;BME280;10712;52.944;9.098;2023-12-22T09:55:45;99529.59;;;12.51;69.15
21109;BME280;10712;52.944;9.098;2023-12-22T09:58:13;99517.06;;;12.52;69.43
21109;BME280;10712;52.944;9.098;2023-12-22T10:00:40;99520.66;;;12.41;69.71
21109;BME280;10712;52.944;9.098;2023-12-22T10:03:07;99506.13;;;12.55;69.30
21109;BME280;10712;52.944;9.098;2023-12-22T10:05:33;99517.25;;;12.60;69.23
21109;BME280;10712;52.944;9.098;2023-12-22T10:08:01;99523.44;;;12.60;69.32
21109;BME280;10712;52.944;9.098;2023-12-22T10:10:28;99513.16;;;12.77;69.04
21109;BME280;10712;52.944;9.098;2023-12-22T10:12:56;99537.06;;;12.78;69.23
21109;BME280;10712;52.944;9.098;2023-12-22T10:15:22;99543.25;;;12.79;69.17
21109;BME280;10712;52.944;9.098;2023-12-22T10:17:54;99553.22;;;12.77;69.17
21109;BME280;10712;52.944;9.098;2023-12-22T10:20:20;99526.50;;;12.77;69.34
21109;BME280;10712;52.944;9.098;2023-12-22T10:22:46;99526.75;;;12.74;69.73
21109;BME280;10712;52.944;9.098;2023-12-22T10:25:15;99512.41;;;12.75;69.70
21109;BME280;10712;52.944;9.098;2023-12-22T10:27:45;99530.69;;;12.70;70.01
21109;BME280;10712;52.944;9.098;2023-12-22T10:30:11;99521.75;;;12.59;70.35
21109;BME280;10712;52.944;9.098;2023-12-22T10:32:41;99536.25;;;12.57;70.51
21109;BME280;10712;52.944;9.098;2023-12-22T10:35:09;99552.53;;;12.54;70.68
21109;BME280;10712;52.944;9.098;2023-12-22T10:37:35;99564.69;;;12.26;71.53
21109;BME280;10712;52.944;9.098;2023-12-22T10:40:04;99557.41;;;12.28;71.37
21109;BME280;10712;52.944;9.098;2023-12-22T10:42:32;99563.72;;;12.27;71.56
21109;BME280;10712;52.944;9.098;2023-12-22T10:44:58;99558.78;;;12.22;71.94
21109;BME280;10712;52.944;9.098;2023-12-22T10:47:24;99553.13;;;12.05;72.31
21109;BME280;10712;52.944;9.098;2023-12-22T10:49:50;99556.47;;;12.18;71.95
21109;BME280;10712;52.944;9.098;2023-12-22T10:52:18;99545.78;;;12.18;71.93
21109;BME280;10712;52.944;9.098;2023-12-22T10:54:44;99557.00;;;12.12;71.96
21109;BME280;10712;52.944;9.098;2023-12-22T10:57:11;99558.47;;;12.05;72.51
21109;BME280;10712;52.944;9.098;2023-12-22T10:59:44;99548.94;;;12.23;71.98
21109;BME280;10712;52.944;9.098;2023-12-22T11:02:16;99541.38;;;12.28;71.99
21109;BME280;10712;52.944;9.098;2023-12-22T11:05:03;99542.81;;;12.32;72.23
21109;BME280;10712;52.944;9.098;2023-12-22T11:07:34;99540.63;;;12.37;72.09
21109;BME280;10712;52.944;9.098;2023-12-22T11:10:06;99531.59;;;12.38;72.13
21109;BME280;10712;52.944;9.098;2023-12-22T11:12:35;99536.38;;;12.35;72.30
21109;BME280;10712;52.944;9.098;2023-12-22T11:15:03;99533.78;;;12.23;72.48
21109;BME280;10712;52.944;9.098;2023-12-22T11:17:33;99532.59;;;12.37;72.26
21109;BME280;10712;52.944;9.098;2023-12-22T11:20:02;99521.41;;;12.43;72.30
21109;BME280;10712;52.944;9.098;2023-12-22T11:22:30;99518.19;;;12.49;72.39
21109;BME280;10712;52.944;9.098;2023-12-22T11:25:00;99517.66;;;12.55;72.31
21109;BME280;10712;52.944;9.098;2023-12-22T11:27:27;99517.91;;;12.52;72.70
21109;BME280;10712;52.944;9.098;2023-12-22T11:29:54;99506.38;;;12.52;73.07
21109;BME280;10712;52.944;9.098;2023-12-22T11:32:20;99507.97;;;12.54;73.55
21109;BME280;10712;52.944;9.098;2023-12-22T11:34:47;99507.50;;;12.49;73.97
21109;BME280;10712;52.944;9.098;2023-12-22T11:37:15;99505.47;;;12.62;73.64
21109;BME280;10712;52.944;9.098;2023-12-22T11:39:43;99506.34;;;12.73;73.47
21109;BME280;10712;52.944;9.098;2023-12-22T11:42:15;99507.50;;;12.70;73.70
21109;BME280;10712;52.944;9.098;2023-12-22T11:44:43;99499.66;;;12.78;73.74
21109;BME280;10712;52.944;9.098;2023-12-22T11:47:10;99491.22;;;12.83;73.74
21109;BME280;10712;52.944;9.098;2023-12-22T11:49:38;99500.66;;;12.87;74.10
21109;BME280;10712;52.944;9.098;2023-12-22T11:52:17;99493.91;;;12.83;74.16
21109;BME280;10712;52.944;9.098;2023-12-22T11:54:49;99488.19;;;12.97;73.83
21109;BME280;10712;52.944;9.098;2023-12-22T11:59:54;99476.41;;;13.09;73.93
21109;BME280;10712;52.944;9.098;2023-12-22T12:02:21;99468.09;;;13.02;74.32
21109;BME280;10712;52.944;9.098;2023-12-22T12:04:53;99467.28;;;13.12;74.25
21109;BME280;10712;52.944;9.098;2023-12-22T12:07:43;99461.66;;;13.15;74.19
21109;BME280;10712;52.944;9.098;2023-12-22T12:15:33;99466.22;;;13.24;74.23
21109;BME280;10712;52.944;9.098;2023-12-22T12:18:01;99469.19;;;13.30;73.89
21109;BME280;10712;52.944;9.098;2023-12-22T12:20:28;99460.88;;;13.33;74.12
21109;BME280;10712;52.944;9.098;2023-12-22T12:22:54;99464.53;;;13.32;73.81
21109;BME280;10712;52.944;9.098;2023-12-22T12:25:24;99469.34;;;13.38;73.75
21109;BME280;10712;52.944;9.098;2023-12-22T12:28:06;99462.88;;;13.51;73.67
21109;BME280;10712;52.944;9.098;2023-12-22T12:30:33;99446.53;;;13.34;74.04
21109;BME280;10712;52.944;9.098;2023-12-22T12:33:10;99449.34;;;13.43;73.66
21109;BME280;10712;52.944;9.098;2023-12-22T12:35:40;99453.72;;;13.44;73.57
21109;BME280;10712;52.944;9.098;2023-12-22T12:38:07;99466.38;;;13.41;73.80
21109;BME280;10712;52.944;9.098;2023-12-22T12:40:36;99454.97;;;13.39;74.04
21109;BME280;10712;52.944;9.098;2023-12-22T12:43:06;99460.19;;;13.41;73.99
21109;BME280;10712;52.944;9.098;2023-12-22T12:45:31;99460.03;;;13.43;73.92
21109;BME280;10712;52.944;9.098;2023-12-22T12:47:59;99453.00;;;13.51;73.82
21109;BME280;10712;52.944;9.098;2023-12-22T12:50:26;99445.97;;;13.40;74.09
21109;BME280;10712;52.944;9.098;2023-12-22T12:52:52;99446.25;;;13.57;74.16
21109;BME280;10712;52.944;9.098;2023-12-22T12:55:23;99451.34;;;13.60;73.71
21109;BME280;10712;52.944;9.098;2023-12-22T12:57:53;99460.22;;;13.60;73.71
21109;BME280;10712;52.944;9.098;2023-12-22T13:00:32;99450.50;;;13.69;73.50
21109;BME280;10712;52.944;9.098;2023-12-22T13:03:10;99457.53;;;13.70;73.46
21109;BME280;10712;52.944;9.098;2023-12-22T13:05:36;99439.50;;;13.62;73.52
21109;BME280;10712;52.944;9.098;2023-12-22T13:08:11;99454.72;;;13.62;73.62
21109;BME280;10712;52.944;9.098;2023-12-22T13:10:38;99464.28;;;13.64;73.60
21109;BME280;10712;52.944;9.098;2023-12-22T13:13:04;99448.25;;;13.74;73.31